Time;durP1;ratioP1;P1;durP2;ratioP2;P2;SDS_P1;SDS_P2;PMS_P1;PMS_P2;Temp;Humidity;BMP_temperature;BMP_pressure;BME280_temperature;BME280_humidity;BME280_pressure;Samples;Min_cycle;Max_cycle;Signal;HPM_P1;HPM_P2
2022/09/19 00:04:24;;;;;;;1.48;0.73;;;14.40;95.20;;;;;;10043391;28;20018;-62
2022/09/19 00:09:18;;;;;;;1.77;0.50;;;14.40;95.50;;;;;;10042972;28;20507;-62
2022/09/19 00:14:14;;;;;;;0.55;0.32;;;14.30;95.70;;;;;;10042511;28;20038;-62
2022/09/19 00:19:07;;;;;;;0.30;0.22;;;14.30;96.00;;;;;;10022451;28;20089;-61
2022/09/19 00:29:09;;;;;;;1.20;0.30;;;14.10;96.50;;;;;;10011867;28;20069;-61
2022/09/19 00:34:00;;;;;;;0.93;0.32;;;13.90;97.30;;;;;;10032991;28;20054;-62
2022/09/19 00:38:51;;;;;;;0.40;0.38;;;13.90;97.70;;;;;;10047657;28;20426;-61
2022/09/19 00:43:44;;;;;;;0.35;0.32;;;13.90;97.80;;;;;;10038494;28;20045;-61
2022/09/19 00:48:40;;;;;;;1.48;0.40;;;13.90;98.00;;;;;;10031917;28;20025;-61
2022/09/19 00:53:31;;;;;;;;;;;13.90;98.10;;;;;;10024866;28;20021;-61
2022/09/19 00:58:29;;;;;;;1.38;0.50;;;13.70;98.50;;;;;;10020941;28;20335;-63
2022/09/19 01:03:24;;;;;;;0.40;0.40;;;13.60;98.60;;;;;;10029697;28;20025;-62
2022/09/19 01:08:28;;;;;;;0.40;0.38;;;13.50;98.70;;;;;;10041457;28;20041;-61
2022/09/19 01:13:31;;;;;;;0.77;0.50;;;13.40;99.00;;;;;;10039145;28;20326;-61
2022/09/19 01:18:27;;;;;;;0.50;0.32;;;13.30;99.30;;;;;;10040119;28;20030;-61
2022/09/19 01:23:45;;;;;;;0.55;0.35;;;13.20;99.50;;;;;;10035870;28;20108;-61
2022/09/19 01:28:53;;;;;;;0.40;0.38;;;13.20;99.60;;;;;;10028495;28;20045;-62
2022/09/19 01:34:05;;;;;;;0.47;0.40;;;13.20;99.70;;;;;;10049861;28;20120;-61
2022/09/19 01:38:57;;;;;;;2.20;0.90;;;13.20;99.70;;;;;;10056141;28;20095;-63
2022/09/19 01:43:49;;;;;;;0.52;0.28;;;13.10;99.80;;;;;;10043520;28;20021;-61
2022/09/19 01:49:06;;;;;;;7.93;1.27;;;13.10;99.80;;;;;;10042384;28;20029;-61
2022/09/19 01:54:28;;;;;;;0.28;0.28;;;13.10;99.90;;;;;;10035397;28;20460;-59
2022/09/19 01:59:40;;;;;;;1.65;0.32;;;13.00;99.90;;;;;;10031238;28;20397;-60
2022/09/19 02:04:47;;;;;;;0.50;0.50;;;12.90;99.90;;;;;;10029730;28;20095;-62
2022/09/19 02:09:49;;;;;;;1.85;0.88;;;12.90;99.90;;;;;;10065290;28;20048;-61
2022/09/19 02:14:42;;;;;;;3.25;0.73;;;12.80;99.90;;;;;;10045326;28;20033;-61
2022/09/19 02:19:41;;;;;;;0.40;0.40;;;12.80;99.90;;;;;;10037320;28;20024;-61
2022/09/19 02:24:36;;;;;;;2.90;0.50;;;12.70;99.90;;;;;;10045178;28;20091;-60
2022/09/19 02:29:30;;;;;;;0.55;0.45;;;12.70;99.90;;;;;;10044844;28;20447;-60
2022/09/19 02:34:21;;;;;;;2.58;0.50;;;12.60;99.90;;;;;;10058325;28;20061;-60
2022/09/19 02:39:12;;;;;;;1.30;0.40;;;12.60;99.90;;;;;;10034744;28;20383;-60
2022/09/19 02:44:36;;;;;;;0.85;0.30;;;12.60;99.90;;;;;;10052670;28;20264;-60
2022/09/19 02:49:57;;;;;;;0.65;0.55;;;12.50;99.90;;;;;;10028757;28;20259;-61
2022/09/19 02:54:53;;;;;;;0.68;0.30;;;12.30;99.90;;;;;;10046080;28;20060;-62
2022/09/19 02:59:49;;;;;;;1.30;0.50;;;12.30;99.90;;;;;;10029338;28;20209;-62
2022/09/19 03:04:45;;;;;;;0.88;0.40;;;12.40;99.90;;;;;;10032180;28;20030;-60
2022/09/19 03:09:36;;;;;;;0.82;0.52;;;12.40;99.90;;;;;;10053734;28;20073;-60
2022/09/19 03:14:27;;;;;;;0.50;0.20;;;12.20;99.90;;;;;;10044758;28;20321;-62
2022/09/19 03:19:18;;;;;;;0.85;0.40;;;12.30;99.90;;;;;;10036815;28;20032;-62
2022/09/19 03:24:10;;;;;;;0.25;0.22;;;12.20;99.90;;;;;;10037223;28;20053;-60
2022/09/19 03:29:03;;;;;;;0.77;0.70;;;12.30;99.90;;;;;;10040926;28;20126;-60
2022/09/19 03:33:57;;;;;;;0.35;0.30;;;12.20;99.90;;;;;;10056954;28;20045;-60
2022/09/19 03:38:48;;;;;;;0.60;0.43;;;12.10;99.90;;;;;;10054071;28;20159;-61
2022/09/19 03:43:42;;;;;;;1.27;0.32;;;12.00;99.90;;;;;;10046773;28;20022;-61
2022/09/19 03:48:32;;;;;;;0.47;0.28;;;12.00;99.90;;;;;;10044654;28;20038;-61
2022/09/19 03:53:23;;;;;;;0.30;0.30;;;11.90;99.90;;;;;;10043664;28;20196;-61
2022/09/19 03:58:14;;;;;;;1.65;0.50;;;11.90;99.90;;;;;;10029637;28;20038;-61
2022/09/19 04:03:05;;;;;;;0.50;0.50;;;11.80;99.90;;;;;;10034239;28;20030;-63
2022/09/19 04:07:55;;;;;;;0.60;0.40;;;11.90;99.90;;;;;;10050019;28;20069;-60
2022/09/19 04:12:48;;;;;;;0.35;0.35;;;11.90;99.90;;;;;;10066281;28;20033;-60
2022/09/19 04:17:39;;;;;;;0.93;0.55;;;11.80;99.90;;;;;;10039812;28;20439;-60
2022/09/19 04:22:29;;;;;;;1.30;0.63;;;11.70;99.90;;;;;;10041225;28;20033;-61
2022/09/19 04:27:20;;;;;;;4.22;0.50;;;11.70;99.90;;;;;;10047040;28;20053;-61
2022/09/19 04:32:12;;;;;;;1.13;0.45;;;11.80;99.90;;;;;;10066606;28;20058;-61
2022/09/19 04:37:03;;;;;;;0.93;0.52;;;11.70;99.90;;;;;;10050413;28;20037;-62
2022/09/19 04:41:53;;;;;;;1.58;0.35;;;11.70;99.90;;;;;;10028998;28;20113;-59
2022/09/19 04:46:46;;;;;;;0.80;0.73;;;11.70;99.90;;;;;;10036673;28;20041;-62
2022/09/19 04:51:37;;;;;;;0.60;0.50;;;11.60;99.90;;;;;;10032060;28;20029;-60
2022/09/19 04:56:27;;;;;;;1.83;0.57;;;11.60;99.90;;;;;;10035453;28;20089;-60
2022/09/19 05:01:18;;;;;;;0.95;0.55;;;11.50;99.90;;;;;;10037427;28;20040;-61
2022/09/19 05:06:09;;;;;;;0.93;0.43;;;11.40;99.90;;;;;;10037265;28;20041;-59
2022/09/19 05:11:02;;;;;;;1.10;0.52;;;11.50;99.90;;;;;;10049062;28;20029;-60
2022/09/19 05:15:53;;;;;;;2.15;0.75;;;11.50;99.90;;;;;;10033050;28;20022;-60
2022/09/19 05:20:44;;;;;;;1.67;0.80;;;11.50;99.90;;;;;;10034269;28;20041;-61
2022/09/19 05:25:38;;;;;;;2.63;0.95;;;11.50;99.90;;;;;;10033471;28;20345;-60
2022/09/19 05:30:29;;;;;;;2.45;1.58;;;11.40;99.90;;;;;;10041360;28;20061;-62
2022/09/19 05:35:20;;;;;;;2.40;0.70;;;11.50;99.90;;;;;;10028544;28;20052;-61
2022/09/19 05:40:11;;;;;;;3.92;0.85;;;11.60;99.90;;;;;;10034045;28;20026;-62
2022/09/19 05:45:02;;;;;;;1.95;0.80;;;11.60;99.90;;;;;;10037784;28;20297;-60
2022/09/19 05:49:52;;;;;;;2.40;0.85;;;11.60;99.90;;;;;;10035418;28;20240;-60
2022/09/19 05:54:43;;;;;;;1.20;0.57;;;11.60;99.90;;;;;;10027915;28;20050;-60
2022/09/19 05:59:34;;;;;;;4.35;0.73;;;11.70;99.90;;;;;;10032355;28;20276;-60
2022/09/19 06:04:25;;;;;;;3.05;1.00;;;11.60;99.90;;;;;;10034044;28;20185;-61
2022/09/19 06:09:15;;;;;;;2.03;0.63;;;11.70;99.90;;;;;;10041078;28;20040;-61
2022/09/19 06:14:18;;;;;;;2.92;1.02;;;11.80;99.90;;;;;;10023541;28;20033;-61
2022/09/19 06:19:09;;;;;;;1.75;0.73;;;11.90;99.90;;;;;;10029059;28;20032;-61
2022/09/19 06:24:01;;;;;;;5.43;0.93;;;12.00;99.90;;;;;;10036856;28;20239;-59
2022/09/19 06:28:51;;;;;;;1.35;0.73;;;12.00;99.90;;;;;;10028500;28;20056;-61
2022/09/19 06:33:42;;;;;;;5.55;0.90;;;12.10;99.90;;;;;;10035739;28;20354;-63
2022/09/19 06:38:33;;;;;;;0.80;0.60;;;12.20;99.90;;;;;;10010012;28;20022;-63
2022/09/19 06:43:26;;;;;;;2.45;1.00;;;12.20;99.90;;;;;;10016666;28;20404;-62
2022/09/19 06:48:16;;;;;;;2.58;0.95;;;12.30;99.90;;;;;;10015824;28;20052;-62
2022/09/19 06:53:07;;;;;;;6.32;1.45;;;12.40;99.90;;;;;;10012251;28;20034;-62
2022/09/19 06:58:00;;;;;;;2.70;1.00;;;12.50;99.90;;;;;;10008366;28;20036;-59
2022/09/19 07:03:01;;;;;;;3.40;1.20;;;12.50;99.90;;;;;;10014378;28;20010;-60
2022/09/19 07:07:52;;;;;;;5.07;1.20;;;12.50;99.90;;;;;;10018654;28;20038;-61
2022/09/19 07:12:43;;;;;;;2.78;0.90;;;12.50;99.90;;;;;;10041563;28;20056;-63
2022/09/19 07:17:33;;;;;;;4.00;2.17;;;12.70;99.90;;;;;;10036456;28;20037;-61
2022/09/19 07:22:24;;;;;;;3.35;1.45;;;12.90;99.90;;;;;;10025266;28;20030;-60
2022/09/19 07:27:15;;;;;;;5.00;1.40;;;13.10;99.90;;;;;;10019988;28;20026;-61
2022/09/19 07:32:05;;;;;;;2.05;1.00;;;13.20;99.90;;;;;;10018018;28;20042;-60
2022/09/19 07:36:56;;;;;;;2.58;1.15;;;13.50;99.90;;;;;;10021438;28;20462;-61
2022/09/19 07:41:47;;;;;;;3.42;1.17;;;13.70;99.90;;;;;;10021912;28;20034;-61
2022/09/19 07:46:37;;;;;;;9.27;2.10;;;13.80;99.90;;;;;;10019053;28;20037;-59
2022/09/19 07:51:30;;;;;;;2.95;1.10;;;13.90;99.90;;;;;;10017615;28;20026;-64
2022/09/19 07:56:20;;;;;;;2.58;0.80;;;13.90;99.90;;;;;;10019776;28;20491;-63
2022/09/19 08:01:11;;;;;;;1.35;0.68;;;13.90;99.90;;;;;;10021692;28;20030;-61
2022/09/19 08:06:02;;;;;;;4.88;0.90;;;14.00;99.90;;;;;;10033023;28;20041;-61
2022/09/19 08:10:58;;;;;;;5.00;1.17;;;14.20;99.90;;;;;;10061873;28;20024;-61
2022/09/19 08:15:48;;;;;;;3.00;1.00;;;14.20;99.90;;;;;;10048871;28;20029;-62
2022/09/19 08:20:41;;;;;;;3.67;0.98;;;14.40;99.90;;;;;;10040214;28;20096;-65
2022/09/19 08:25:34;;;;;;;2.53;1.17;;;14.60;99.90;;;;;;10036753;28;20029;-61
2022/09/19 08:30:29;;;;;;;1.85;0.90;;;14.60;99.90;;;;;;10040779;28;20084;-63
2022/09/19 08:35:20;;;;;;;4.23;1.17;;;14.50;99.90;;;;;;10054186;28;20040;-63
2022/09/19 08:40:21;;;;;;;8.27;2.05;;;14.60;99.90;;;;;;10035025;28;20033;-65
2022/09/19 08:45:23;;;;;;;3.70;1.15;;;14.60;99.90;;;;;;10029847;28;20377;-61
2022/09/19 08:50:27;;;;;;;2.67;1.35;;;14.40;99.90;;;;;;10044583;28;20096;-61
2022/09/19 08:55:22;;;;;;;2.50;0.90;;;14.50;99.90;;;;;;10022033;28;20395;-65
2022/09/19 09:00:39;;;;;;;2.30;0.95;;;14.50;99.70;;;;;;10029672;28;20028;-62
2022/09/19 09:05:43;;;;;;;3.42;0.93;;;14.60;99.60;;;;;;10022912;28;20341;-62
2022/09/19 09:10:50;;;;;;;6.00;1.73;;;14.70;99.50;;;;;;10014062;28;20642;-65
2022/09/19 09:16:12;;;;;;;5.22;1.02;;;14.70;99.30;;;;;;10012846;28;20082;-60
2022/09/19 09:21:36;;;;;;;4.70;0.90;;;14.90;99.20;;;;;;10007885;28;20342;-64
2022/09/19 09:26:31;;;;;;;4.07;0.90;;;15.10;99.00;;;;;;10014613;28;20496;-62
2022/09/19 09:31:36;;;;;;;4.10;0.90;;;15.10;98.80;;;;;;10017701;28;20056;-64
2022/09/19 09:36:35;;;;;;;5.50;1.20;;;15.20;98.60;;;;;;10022117;28;20195;-69
2022/09/19 09:41:45;;;;;;;1.95;1.00;;;15.50;98.50;;;;;;10026308;28;20087;-69
2022/09/19 09:46:50;;;;;;;2.47;1.35;;;15.70;98.30;;;;;;10019715;28;20033;-65
2022/09/19 09:52:22;;;;;;;5.37;1.20;;;15.70;98.10;;;;;;10015632;28;20034;-63
2022/09/19 09:58:01;;;;;;;3.65;1.58;;;15.80;98.10;;;;;;10015201;28;20555;-66
2022/09/19 10:08:28;;;;;;;4.07;1.30;;;16.00;98.20;;;;;;10012770;28;20045;-60
2022/09/19 10:13:27;;;;;;;4.47;0.98;;;16.20;98.00;;;;;;10009961;28;20028;-64
2022/09/19 10:18:18;;;;;;;7.07;2.17;;;16.50;97.90;;;;;;10010920;28;20041;-61
2022/09/19 10:23:23;;;;;;;5.57;1.20;;;16.40;97.70;;;;;;10010966;28;20022;-61
2022/09/19 10:28:24;;;;;;;3.15;0.90;;;16.40;97.70;;;;;;10011918;28;20454;-62
2022/09/19 10:33:28;;;;;;;4.07;1.27;;;16.50;97.50;;;;;;10012621;28;20050;-62
2022/09/19 10:38:19;;;;;;;3.15;1.05;;;16.80;97.20;;;;;;10011771;28;20083;-61
2022/09/19 10:43:22;;;;;;;4.47;1.95;;;17.00;97.10;;;;;;10021003;28;20030;-62
2022/09/19 10:48:21;;;;;;;4.55;1.42;;;16.70;97.40;;;;;;10023137;28;20045;-64
2022/09/19 10:53:24;;;;;;;4.68;1.40;;;16.80;97.30;;;;;;10026962;28;20034;-63
2022/09/19 10:58:27;;;;;;;2.10;1.50;;;16.70;97.10;;;;;;10039900;28;20030;-62
2022/09/19 11:03:28;;;;;;;7.25;1.95;;;16.90;97.10;;;;;;10036127;28;20057;-63
2022/09/19 11:08:26;;;;;;;4.35;2.53;;;17.00;96.80;;;;;;10052313;28;20325;-63
2022/09/19 11:13:25;;;;;;;3.95;0.90;;;16.80;96.70;;;;;;10042923;28;20044;-63
2022/09/19 11:18:39;;;;;;;6.65;2.03;;;16.60;96.80;;;;;;10043954;28;20029;-60
2022/09/19 11:23:43;;;;;;;5.63;1.73;;;16.60;96.60;;;;;;10024519;28;20026;-61
2022/09/19 11:29:27;;;;;;;2.30;1.10;;;17.00;96.40;;;;;;10033278;28;20344;-61
2022/09/19 11:34:28;;;;;;;7.85;1.67;;;17.10;96.00;;;;;;10044516;28;20056;-59
2022/09/19 11:39:49;;;;;;;0.90;0.52;;;17.10;96.10;;;;;;10016980;28;20113;-60
2022/09/19 11:45:04;;;;;;;5.25;0.95;;;17.10;95.70;;;;;;10008258;28;20030;-59
2022/09/19 11:50:20;;;;;;;2.45;1.00;;;16.80;95.90;;;;;;9995509;28;20044;-63
2022/09/19 11:55:45;;;;;;;4.80;1.30;;;17.00;95.70;;;;;;9999511;28;20057;-65
2022/09/19 12:00:59;;;;;;;4.45;1.25;;;17.00;95.70;;;;;;10027887;28;20480;-65
2022/09/19 12:06:06;;;;;;;3.28;1.30;;;17.30;95.40;;;;;;10017196;28;20032;-60
2022/09/19 12:11:07;;;;;;;4.70;1.30;;;17.50;95.30;;;;;;10000222;28;20113;-59
2022/09/19 12:16:04;;;;;;;3.58;2.28;;;17.60;95.30;;;;;;9996527;28;20109;-62
2022/09/19 12:20:57;;;;;;;8.65;1.50;;;17.70;95.40;;;;;;9996909;28;20121;-67
2022/09/19 12:25:51;;;;;;;2.00;0.75;;;17.60;95.40;;;;;;10005832;28;20274;-63
2022/09/19 12:30:48;;;;;;;4.28;2.20;;;17.60;95.30;;;;;;10029383;28;20081;-63
2022/09/19 12:36:05;;;;;;;2.92;1.05;;;17.90;95.10;;;;;;10017380;28;20044;-64
2022/09/19 12:41:11;;;;;;;5.38;2.03;;;18.20;95.00;;;;;;10012342;28;20404;-62
2022/09/19 12:46:29;;;;;;;6.43;1.52;;;19.00;94.80;;;;;;10055716;28;20080;-63
2022/09/19 12:51:26;;;;;;;6.07;1.00;;;19.80;94.50;;;;;;10035119;28;20026;-62
2022/09/19 12:56:31;;;;;;;1.92;1.42;;;20.20;94.70;;;;;;10019319;28;20030;-67
2022/09/19 13:01:45;;;;;;;3.67;1.15;;;20.30;94.40;;;;;;10017517;28;20025;-65
2022/09/19 13:06:42;;;;;;;1.42;0.80;;;20.90;93.50;;;;;;10005115;28;20034;-64
2022/09/19 13:11:48;;;;;;;1.60;0.65;;;21.30;94.20;;;;;;9999600;28;20025;-62
2022/09/19 13:23:29;;;;;;;2.53;0.68;;;21.00;93.10;;;;;;10031490;28;20029;-62
2022/09/19 13:27:01;;;;;;;6.18;0.90;;;20.50;92.10;;;;;;10038947;28;20385;-62
2022/09/19 13:31:53;;;;;;;4.63;1.27;;;19.60;91.60;;;;;;10035937;28;20474;-62
2022/09/19 13:36:45;;;;;;;1.92;0.70;;;19.30;91.20;;;;;;10034798;28;20205;-62
2022/09/19 13:42:02;;;;;;;5.78;0.77;;;19.30;90.80;;;;;;10048938;28;20368;-62
2022/09/19 13:47:05;;;;;;;2.40;0.95;;;20.30;90.30;;;;;;10037394;28;20062;-62
2022/09/19 13:52:07;;;;;;;6.55;1.20;;;20.00;89.70;;;;;;9998329;28;20053;-60
2022/09/19 13:57:03;;;;;;;3.55;0.80;;;20.60;88.80;;;;;;10022369;28;20168;-62
2022/09/19 14:01:57;;;;;;;1.23;0.70;;;19.80;89.20;;;;;;9994451;28;20060;-62
2022/09/19 14:07:00;;;;;;;4.43;0.88;;;19.30;89.50;;;;;;10017154;28;20037;-66
2022/09/19 14:11:51;;;;;;;1.75;0.47;;;18.90;89.30;;;;;;10043074;28;20420;-60
2022/09/19 14:17:12;;;;;;;2.58;0.73;;;18.80;89.10;;;;;;10028029;28;20013;-63
2022/09/19 14:22:02;;;;;;;4.03;1.10;;;19.10;88.10;;;;;;10036626;28;20049;-61
2022/09/19 14:27:14;;;;;;;3.10;1.00;;;19.40;87.90;;;;;;10025327;28;20507;-60
2022/09/19 14:32:41;;;;;;;1.80;0.98;;;21.00;86.90;;;;;;10027829;28;20050;-59
2022/09/19 14:37:59;;;;;;;3.95;1.65;;;24.00;83.40;;;;;;9949397;28;20035;-61
2022/09/19 14:43:06;;;;;;;5.88;1.08;;;24.50;81.80;;;;;;9983847;28;20037;-62
2022/09/19 14:48:15;;;;;;;1.27;0.57;;;23.80;76.60;;;;;;9985323;28;20023;-61
2022/09/19 14:53:13;;;;;;;1.23;0.80;;;21.50;79.50;;;;;;10002713;28;20031;-60
2022/09/19 14:58:04;;;;;;;2.33;0.90;;;20.00;79.70;;;;;;9998305;28;20033;-59
2022/09/19 15:02:56;;;;;;;1.92;0.77;;;22.20;77.90;;;;;;10016564;28;20103;-65
2022/09/19 15:07:47;;;;;;;1.98;0.70;;;26.70;71.50;;;;;;9980725;28;20057;-61
2022/09/19 15:12:39;;;;;;;2.15;0.80;;;29.40;66.90;;;;;;9989185;28;20065;-60
2022/09/19 15:17:32;;;;;;;2.75;0.88;;;29.50;63.00;;;;;;9987982;28;20030;-61
2022/09/19 15:22:31;;;;;;;3.20;1.08;;;29.20;60.60;;;;;;9980471;28;20094;-65
2022/09/19 15:27:28;;;;;;;3.13;0.88;;;29.90;58.70;;;;;;9984607;28;20042;-65
2022/09/19 15:32:33;;;;;;;1.30;0.75;;;29.80;56.90;;;;;;9985455;28;20050;-66
2022/09/19 15:37:26;;;;;;;2.15;1.00;;;29.50;56.10;;;;;;9983166;28;20102;-66
2022/09/19 15:42:20;;;;;;;4.07;0.80;;;29.40;54.20;;;;;;9988848;28;20011;-61
2022/09/19 15:47:14;;;;;;;;;;;28.70;53.30;;;;;;9992918;28;20038;-65
2022/09/19 15:52:15;;;;;;;3.03;0.85;;;28.50;51.50;;;;;;9993847;28;19920;-63
2022/09/19 15:57:36;;;;;;;2.15;0.98;;;28.60;51.10;;;;;;10006456;28;20030;-60
2022/09/19 16:02:33;;;;;;;2.65;0.80;;;28.90;49.50;;;;;;10008736;28;20125;-63
2022/09/19 16:12:44;;;;;;;2.08;0.80;;;28.80;48.90;;;;;;10017618;28;20299;-60
2022/09/19 16:17:55;;;;;;;4.47;1.30;;;28.50;48.90;;;;;;10019770;28;20431;-69
2022/09/19 16:22:53;;;;;;;1.30;0.75;;;27.40;48.80;;;;;;10038475;28;20288;-64
2022/09/19 16:27:44;;;;;;;2.60;1.05;;;23.30;52.10;;;;;;10036916;28;20045;-72
2022/09/19 16:32:35;;;;;;;8.32;2.28;;;21.60;54.00;;;;;;10040428;28;20064;-67
2022/09/19 16:37:36;;;;;;;1.55;0.65;;;21.20;54.00;;;;;;10069433;28;20060;-62
2022/09/19 16:42:30;;;;;;;4.55;1.80;;;22.10;53.60;;;;;;10061893;28;20022;-65
2022/09/19 16:47:25;;;;;;;2.73;1.07;;;24.90;51.00;;;;;;10053233;28;20044;-64
2022/09/19 16:52:23;;;;;;;2.28;0.70;;;25.10;49.90;;;;;;10043491;28;20030;-64
2022/09/19 16:57:18;;;;;;;2.53;0.82;;;22.10;53.90;;;;;;10030201;28;20021;-60
2022/09/19 17:02:14;;;;;;;7.20;2.33;;;20.30;56.40;;;;;;10034733;28;20029;-61
2022/09/19 17:07:04;;;;;;;4.07;1.90;;;19.30;57.50;;;;;;10031360;28;20037;-63
2022/09/19 17:11:56;;;;;;;7.22;1.38;;;18.80;58.20;;;;;;10048307;28;20112;-61
2022/09/19 17:16:47;;;;;;;1.90;1.05;;;18.40;58.80;;;;;;10041238;28;20029;-61
2022/09/19 17:21:38;;;;;;;7.22;2.47;;;18.30;59.20;;;;;;10042283;28;20063;-64
2022/09/19 17:26:29;;;;;;;2.85;1.20;;;18.10;59.70;;;;;;10028438;28;20034;-60
2022/09/19 17:31:22;;;;;;;4.15;1.50;;;17.90;60.40;;;;;;10032472;28;20053;-65
2022/09/19 17:36:15;;;;;;;5.15;1.90;;;17.90;60.60;;;;;;10056830;28;20464;-62
2022/09/19 17:41:06;;;;;;;5.35;1.50;;;17.90;61.00;;;;;;10042242;28;20033;-64
2022/09/19 17:46:00;;;;;;;4.13;1.55;;;17.70;61.50;;;;;;10051118;28;20354;-61
2022/09/19 17:50:51;;;;;;;1.98;1.30;;;17.60;62.10;;;;;;10047992;28;20605;-61
2022/09/19 17:55:41;;;;;;;5.82;1.50;;;17.40;62.80;;;;;;10039125;28;21040;-62
2022/09/19 18:00:32;;;;;;;2.38;1.20;;;17.30;63.10;;;;;;10034744;28;20343;-63
2022/09/19 18:05:23;;;;;;;7.28;2.10;;;17.20;63.70;;;;;;10021849;28;20467;-65
2022/09/19 18:10:13;;;;;;;5.68;2.65;;;17.20;64.00;;;;;;10031231;28;20099;-61
2022/09/19 18:15:04;;;;;;;2.55;1.48;;;17.30;64.30;;;;;;10040781;28;20443;-64
2022/09/19 18:19:56;;;;;;;3.30;1.70;;;17.20;64.70;;;;;;10036829;28;20088;-62
2022/09/19 18:24:47;;;;;;;4.35;2.47;;;17.20;65.20;;;;;;10032256;28;20022;-61
2022/09/19 18:29:38;;;;;;;4.30;2.00;;;17.10;65.40;;;;;;10024985;28;20040;-64
2022/09/19 18:34:28;;;;;;;8.82;2.25;;;17.10;66.00;;;;;;10030592;28;20041;-62
2022/09/19 18:39:19;;;;;;;7.55;2.75;;;17.00;66.40;;;;;;10040067;28;20025;-68
2022/09/19 18:44:10;;;;;;;4.90;1.40;;;16.90;66.80;;;;;;10019559;28;20025;-63
2022/09/19 18:49:01;;;;;;;4.55;1.20;;;16.90;67.20;;;;;;10022013;28;20030;-61
2022/09/19 18:53:54;;;;;;;8.13;2.42;;;16.90;67.50;;;;;;10035348;28;20432;-63
2022/09/19 18:58:50;;;;;;;2.97;1.60;;;16.80;67.90;;;;;;10031256;28;20237;-62
2022/09/19 19:03:43;;;;;;;2.88;1.65;;;16.90;68.20;;;;;;10035192;28;20598;-64
2022/09/19 19:08:35;;;;;;;3.92;1.58;;;16.90;68.40;;;;;;10027792;28;20041;-61
2022/09/19 19:13:27;;;;;;;4.25;1.85;;;16.90;68.50;;;;;;10026975;28;20540;-62
2022/09/19 19:18:23;;;;;;;4.03;1.77;;;16.70;69.20;;;;;;10044611;28;20138;-62
2022/09/19 19:23:14;;;;;;;6.43;2.92;;;16.70;69.50;;;;;;10039200;28;20045;-63
2022/09/19 19:28:04;;;;;;;8.07;2.65;;;16.80;69.90;;;;;;10023772;28;20067;-60
2022/09/19 19:32:55;;;;;;;3.90;1.90;;;16.80;70.20;;;;;;10019656;28;20125;-61
2022/09/19 19:37:46;;;;;;;4.07;1.45;;;16.70;70.60;;;;;;10029919;28;20036;-65
2022/09/19 19:42:39;;;;;;;19.45;7.07;;;16.60;71.00;;;;;;10045368;28;20022;-63
2022/09/19 19:47:30;;;;;;;7.55;3.58;;;16.20;71.80;;;;;;10038813;28;20110;-61
2022/09/19 19:52:21;;;;;;;6.55;1.95;;;16.00;72.50;;;;;;10028397;28;20113;-61
2022/09/19 19:57:11;;;;;;;4.68;2.20;;;15.90;73.60;;;;;;10024871;28;20034;-63
2022/09/19 20:02:03;;;;;;;5.65;2.03;;;15.80;73.30;;;;;;10019025;28;20033;-62
2022/09/19 20:06:54;;;;;;;5.45;2.15;;;15.70;73.80;;;;;;10008850;28;20060;-63
2022/09/19 20:11:46;;;;;;;5.05;1.40;;;15.60;74.50;;;;;;10015993;28;20129;-60
2022/09/19 20:16:39;;;;;;;6.03;2.10;;;15.70;74.60;;;;;;10030125;28;20500;-62
2022/09/19 20:21:33;;;;;;;3.72;2.10;;;15.60;74.90;;;;;;10027293;28;20369;-58
2022/09/19 20:26:29;;;;;;;6.07;2.00;;;15.70;75.40;;;;;;10025209;28;20022;-60
2022/09/19 20:31:21;;;;;;;4.00;1.30;;;15.60;75.70;;;;;;10025451;28;20129;-59
2022/09/19 20:36:13;;;;;;;4.88;1.70;;;15.30;76.30;;;;;;10032207;28;20506;-60
2022/09/19 20:41:06;;;;;;;4.05;1.40;;;15.30;76.80;;;;;;10051601;28;20495;-61
2022/09/19 20:45:58;;;;;;;6.15;1.70;;;15.30;77.20;;;;;;10039575;28;20030;-60
2022/09/19 20:50:53;;;;;;;3.78;1.85;;;15.40;77.30;;;;;;10022890;28;20303;-65
2022/09/19 20:55:43;;;;;;;5.38;1.60;;;15.50;77.60;;;;;;10003732;28;20032;-62
2022/09/19 21:00:34;;;;;;;3.03;1.40;;;15.40;78.00;;;;;;10022931;28;20026;-61
2022/09/19 21:05:25;;;;;;;4.80;1.30;;;15.20;78.60;;;;;;10023701;28;20030;-62
2022/09/19 21:10:16;;;;;;;5.50;1.60;;;15.10;79.30;;;;;;10010906;28;20087;-61
2022/09/19 21:15:07;;;;;;;3.78;2.28;;;15.10;79.50;;;;;;10033396;28;20496;-65
2022/09/19 21:19:58;;;;;;;2.15;1.13;;;15.10;80.00;;;;;;10026427;28;20420;-68
2022/09/19 21:24:48;;;;;;;5.13;1.50;;;14.90;80.40;;;;;;10021313;28;20030;-64
2022/09/19 21:29:39;;;;;;;4.88;1.80;;;14.80;81.10;;;;;;10018687;28;20037;-63
2022/09/19 21:34:35;;;;;;;5.00;2.08;;;14.70;81.60;;;;;;10016849;28;20050;-62
2022/09/19 21:39:26;;;;;;;3.88;1.85;;;14.70;82.10;;;;;;10034978;28;20088;-63
2022/09/19 21:44:17;;;;;;;7.90;1.88;;;14.70;82.50;;;;;;10028079;28;20022;-65
2022/09/19 21:49:07;;;;;;;2.42;1.60;;;14.70;82.90;;;;;;10032640;28;20034;-66
2022/09/19 21:53:59;;;;;;;2.67;1.15;;;14.60;83.40;;;;;;10026266;28;20018;-66
2022/09/19 21:58:50;;;;;;;2.30;1.42;;;14.60;84.10;;;;;;10019606;28;20033;-68
2022/09/19 22:03:41;;;;;;;10.52;1.88;;;14.70;84.50;;;;;;10015384;28;20033;-63
2022/09/19 22:08:32;;;;;;;6.55;1.98;;;14.60;85.20;;;;;;10016654;28;20416;-67
2022/09/19 22:13:23;;;;;;;9.32;1.98;;;14.60;85.70;;;;;;10032500;28;20036;-65
2022/09/19 22:18:14;;;;;;;3.22;1.80;;;14.60;86.40;;;;;;10023775;28;20108;-62
2022/09/19 22:23:05;;;;;;;6.47;2.20;;;14.60;86.90;;;;;;10023349;28;20033;-62
2022/09/19 22:27:58;;;;;;;5.30;2.10;;;14.60;87.20;;;;;;10021901;28;20075;-66
2022/09/19 22:32:49;;;;;;;3.78;1.92;;;14.60;87.60;;;;;;10032518;28;20590;-64
2022/09/19 22:37:40;;;;;;;4.45;2.13;;;14.50;88.10;;;;;;10021506;28;20029;-61
2022/09/19 22:42:30;;;;;;;6.50;1.90;;;14.40;88.50;;;;;;10036624;28;20116;-63
2022/09/19 22:47:22;;;;;;;5.22;1.70;;;14.30;89.20;;;;;;10044697;28;20033;-60
2022/09/19 22:52:13;;;;;;;5.65;2.60;;;14.20;89.70;;;;;;10038768;28;20050;-64
2022/09/19 22:57:04;;;;;;;6.88;1.58;;;14.20;90.00;;;;;;10030980;28;20524;-62
2022/09/19 23:01:54;;;;;;;4.35;2.20;;;14.10;90.30;;;;;;10026936;28;20509;-63
2022/09/19 23:06:45;;;;;;;2.60;1.45;;;13.90;90.70;;;;;;10024013;28;20336;-65
2022/09/19 23:11:36;;;;;;;2.67;1.60;;;13.90;91.00;;;;;;10038471;28;20033;-62
2022/09/19 23:16:31;;;;;;;4.28;1.67;;;13.90;91.50;;;;;;10044737;28;20030;-60
2022/09/19 23:21:24;;;;;;;3.30;1.80;;;13.80;91.70;;;;;;10036555;28;20034;-61
2022/09/19 23:26:16;;;;;;;3.92;1.65;;;13.70;92.10;;;;;;10038856;28;20026;-60
2022/09/19 23:31:06;;;;;;;2.78;1.55;;;13.60;92.50;;;;;;10044606;28;20848;-61
2022/09/19 23:36:05;;;;;;;3.42;1.90;;;13.50;93.00;;;;;;10041280;28;20029;-61
2022/09/19 23:41:01;;;;;;;3.28;1.70;;;13.70;93.50;;;;;;10061139;28;20080;-59
2022/09/19 23:45:51;;;;;;;3.17;1.88;;;13.70;93.70;;;;;;10059782;28;20018;-62
2022/09/19 23:50:42;;;;;;;2.75;1.67;;;13.70;94.20;;;;;;10054501;28;20076;-60
2022/09/19 23:55:33;;;;;;;3.38;2.00;;;13.70;94.40;;;;;;10049631;28;20269;-61
